LS Concorde — ZDHJ7 — position and weather

sailwx.info

Track history (hours):
 
Tides and Currents Weather Stations Pressure Air Temp Water Temp Dewpoint Dewpoint Depression Visibility Wind Speed Wind Dir Waves Ship Positions

LS Concorde

Last reported at 2014-Dec-20 09:31 UTC. Time now 2014-Dec-20 09:44 UTC.
Position N 51°57' E 003°48'.

Length 99 m; draft 5.3 m.

Type: Tanker. MMSI: 236329000.

Date/timePositionNaut miles runAvg speedWind from/ knotsBaromVisibWave heightAir tempDewpointWater temp
2014-Dec-20 09:31N 51°57' E 003°48'0 0.1
2014-Dec-20 08:16N 51°57' E 003°48'0 0.0
2014-Dec-20 07:22N 51°57' E 003°48'0 0.0
2014-Dec-20 06:31N 51°57' E 003°48'0 0.1
2014-Dec-20 05:28N 51°57' E 003°48'0 0.0
2014-Dec-20 04:22N 51°57' E 003°48'0 0.0
2014-Dec-20 03:22N 51°57' E 003°48'0 0.0
2014-Dec-20 02:31N 51°57' E 003°48'0 0.0
2014-Dec-20 01:25N 51°57' E 003°48'0 0.0
2014-Dec-20 00:28N 51°57' E 003°48'0 0.0
2014-Dec-19 23:22N 51°57' E 003°48'0 0.1
2014-Dec-19 22:31N 51°57' E 003°48'0 0.0
2014-Dec-19 21:31N 51°57' E 003°48'0 0.0
2014-Dec-19 20:25N 51°57' E 003°48'0 0.1
2014-Dec-19 19:25N 51°57' E 003°48'0 0.0
2014-Dec-19 18:22N 51°57' E 003°48'0 0.0
2014-Dec-19 17:31N 51°57' E 003°48'0 0.1
2014-Dec-19 16:28N 51°57' E 003°48'0 0.0
2014-Dec-19 15:31N 51°57' E 003°48'0 0.0
2014-Dec-19 14:28N 51°57' E 003°48'0 0.0
2014-Dec-19 13:31N 51°57' E 003°48'0 0.0
2014-Dec-19 12:31N 51°57' E 003°48'0 0.0
2014-Dec-19 11:28N 51°57' E 003°48'0 0.0
2014-Dec-19 10:22N 51°57' E 003°48'0 0.0
2014-Dec-19 09:10N 51°57' E 003°48'0 0.0
2014-Dec-19 08:25N 51°57' E 003°48'0 0.1
2014-Dec-19 07:28N 51°57' E 003°48'0 0.0
2014-Dec-19 06:31N 51°57' E 003°48'0 0.0
2014-Dec-19 05:22N 51°57' E 003°48'0 0.0
2014-Dec-19 04:07N 51°57' E 003°48'0 0.0
2014-Dec-19 03:31N 51°57' E 003°48'0 0.0
2014-Dec-19 02:31N 51°57' E 003°48'0 0.4
2014-Dec-19 01:33N 51°57' E 003°48'6 6.4
2014-Dec-19 00:33N 52°03' E 003°54'8 7.6
2014-Dec-18 23:33N 51°59' E 004°05'9 9.1
2014-Dec-18 22:33N 51°54' E 004°17'4 3.1
2014-Dec-18 21:23N 51°53' E 004°23'0 0.0
2014-Dec-18 20:20N 51°53' E 004°23'0 0.0
2014-Dec-18 19:32N 51°53' E 004°23'0 0.0
2014-Dec-18 18:26N 51°53' E 004°23'0 0.0
2014-Dec-18 17:29N 51°53' E 004°23'0 0.0
2014-Dec-18 16:32N 51°53' E 004°23'0 0.0
2014-Dec-18 15:32N 51°53' E 004°23'0 0.0
2014-Dec-18 14:32N 51°53' E 004°23'0 0.0
2014-Dec-18 13:32N 51°53' E 004°23'0 0.0
2014-Dec-18 12:32N 51°53' E 004°23'0 0.0
2014-Dec-18 11:33N 51°53' E 004°23'0 0.0
2014-Dec-18 10:33N 51°53' E 004°23'0 0.0
2014-Dec-18 09:33N 51°53' E 004°23'0 0.0
2014-Dec-18 08:33N 51°53' E 004°23'0 0.0
2014-Dec-18 07:33N 51°53' E 004°23'0 0.0
2014-Dec-18 06:33N 51°53' E 004°23'0 0.0
2014-Dec-18 05:33N 51°53' E 004°23'0 0.0
2014-Dec-18 04:33N 51°53' E 004°23'0 0.0
2014-Dec-18 03:33N 51°53' E 004°23'0 0.0
2014-Dec-18 02:33N 51°53' E 004°23'0 0.0
2014-Dec-18 01:33N 51°53' E 004°23'0 0.0
2014-Dec-18 00:34N 51°53' E 004°23'0 0.4
2014-Dec-17 23:34N 51°53' E 004°22'8 7.9
2014-Dec-17 22:33N 51°57' E 004°10'1312.8
2014-Dec-17 21:33N 52°00' E 003°50'1312.5
2014-Dec-17 20:33N 51°56' E 003°31'1313.1
2014-Dec-17 19:33N 51°52' E 003°11'1312.6
2014-Dec-17 18:33N 51°48' E 002°51'1211.7
2014-Dec-17 17:33N 51°43' E 002°35'1111.6
2014-Dec-17 16:33N 51°34' E 002°23'1111.2
2014-Dec-17 15:33N 51°25' E 002°12'1211.7
2014-Dec-17 14:33N 51°14' E 002°04'1612.2
2014-Dec-17 13:12N 51°04' E 001°43'812.9
2014-Dec-17 12:33N 50°58' E 001°34'10212.3
2014-Dec-17 04:12N 49°36' W 000°02'811.7
2014-Dec-17 03:32N 49°29' E 000°04'2 2.2
2014-Dec-17 02:30N 49°28' E 000°07'0 0.0
2014-Dec-17 01:30N 49°28' E 000°07'0 0.0
2014-Dec-17 00:30N 49°28' E 000°07'0 0.0
2014-Dec-16 23:06N 49°28' E 000°07'0 0.0
2014-Dec-16 22:24N 49°28' E 000°07'0 0.0
2014-Dec-16 21:24N 49°28' E 000°07'0 0.0
2014-Dec-16 20:12N 49°28' E 000°07'0 0.0
2014-Dec-16 19:12N 49°28' E 000°07'0 0.0
2014-Dec-16 18:33N 49°28' E 000°07'0 0.0
2014-Dec-16 17:15N 49°28' E 000°07'0 0.0
2014-Dec-16 16:30N 49°28' E 000°07'0 0.0
2014-Dec-16 15:33N 49°28' E 000°07'6 6.1
2014-Dec-16 14:33N 49°30' W 000°02'1110.8
2014-Dec-16 13:30N 49°40' W 000°10'6412.0
2014-Dec-16 08:10N 50°33' E 000°46'711.2
2014-Dec-16 07:33N 50°40' E 000°47'1212.1
2014-Dec-16 06:33N 50°46' E 001°04'1211.6
2014-Dec-16 05:33N 50°53' E 001°18'1212.3
2014-Dec-16 04:33N 51°04' E 001°29'1313.5
2014-Dec-16 03:33N 51°13' E 001°45'1413.9
2014-Dec-16 02:33N 51°24' E 001°59'1512.7
2014-Dec-16 01:22N 51°21' E 002°23'1511.8
2014-Dec-16 00:07N 51°22' E 002°46'1213.3
2014-Dec-15 23:12N 51°24' E 003°06'913.5
2014-Dec-15 22:34N 51°25' E 003°19'1312.7
2014-Dec-15 21:33N 51°27' E 003°40'9 9.0
2014-Dec-15 20:34N 51°20' E 003°49'7 6.8
2014-Dec-15 19:33N 51°13' E 003°48'1 0.6
2014-Dec-15 18:30N 51°12' E 003°48'0 0.0
2014-Dec-15 17:30N 51°12' E 003°48'0 0.0
2014-Dec-15 16:30N 51°12' E 003°48'0 0.0
2014-Dec-15 15:18N 51°12' E 003°48'0 0.0
2014-Dec-15 14:24N 51°12' E 003°48'0 0.0
2014-Dec-15 13:30N 51°12' E 003°48'0 0.0
2014-Dec-15 12:33N 51°12' E 003°48'0 0.0
2014-Dec-15 11:33N 51°12' E 003°48'0 0.0
2014-Dec-15 10:33N 51°12' E 003°48'0 0.0
2014-Dec-15 09:33N 51°12' E 003°48'0 0.0
2014-Dec-15 08:33N 51°12' E 003°48'0 0.0
2014-Dec-15 07:33N 51°12' E 003°48'0 0.0
2014-Dec-15 06:33N 51°12' E 003°48'0 0.0
2014-Dec-15 05:30N 51°12' E 003°48'0 0.0
2014-Dec-15 04:33N 51°12' E 003°48'0 0.0
2014-Dec-15 03:30N 51°12' E 003°48'0 0.0
2014-Dec-15 02:30N 51°12' E 003°48'0 0.0
2014-Dec-15 01:33N 51°12' E 003°48'0 0.0
2014-Dec-15 00:30N 51°12' E 003°48'0 0.0
2014-Dec-14 09:15N 51°12' E 003°48'0 0.0
2014-Dec-13 19:33N 51°12' E 003°48'6 5.9
2014-Dec-13 18:33N 51°18' E 003°50'4 3.5
2014-Dec-13 17:33N 51°21' E 003°47'8 8.0
2014-Dec-13 16:33N 51°26' E 003°37'1111.4
2014-Dec-13 15:33N 51°34' E 003°24'1110.5
2014-Dec-13 14:32N 51°44' E 003°17'3 0.5
2014-Dec-13 08:12N 51°46' E 003°20'3 4.9
2014-Dec-13 07:30N 51°49' E 003°17'6210.3
2014-Dec-13 01:33N 52°48' E 003°45'1110.4
2014-Dec-13 00:32N 52°56' E 003°56'34 8.1
2014-Dec-12 20:18N 53°22' E 004°34'5 6.9
2014-Dec-12 19:34N 53°26' E 004°38'7 6.7
2014-Dec-12 18:32N 53°31' E 004°47'7 7.5
2014-Dec-12 17:33N 53°33' E 004°58'9 9.0
2014-Dec-12 16:33N 53°37' E 005°12'8 8.1
2014-Dec-12 15:34N 53°39' E 005°25'8 7.7
2014-Dec-12 14:33N 53°41' E 005°38'7 6.9
2014-Dec-12 13:34N 53°44' E 005°49'6 5.7
2014-Dec-12 12:34N 53°45' E 005°58'5 4.7
2014-Dec-12 11:32N 53°47' E 006°06'50 6.9
2014-Dec-12 04:21N 54°00' E 007°27'6 7.9
2014-Dec-12 03:33N 54°01' E 007°38'7 6.9
2014-Dec-12 02:33N 54°02' E 007°49'6 6.0
2014-Dec-12 01:33N 54°02' E 007°59'6 5.4
2014-Dec-12 00:31N 54°01' E 008°09'4 4.3
2014-Dec-11 23:33N 54°01' E 008°16'4 4.5
2014-Dec-11 22:33N 53°59' E 008°23'1010.3
2014-Dec-11 21:33N 53°56' E 008°40'1312.7
2014-Dec-11 20:33N 53°51' E 008°60'6 5.8
2014-Dec-11 19:34N 53°54' E 009°09'5 5.1
2014-Dec-11 18:33N 53°57' E 009°15'8 8.3
2014-Dec-11 17:33N 54°05' E 009°19'6 6.4
2014-Dec-11 16:33N 54°10' E 009°26'6 4.0
2014-Dec-11 15:08N 54°13' E 009°35'4 6.5
2014-Dec-11 14:33N 54°16' E 009°38'7 6.7
2014-Dec-11 13:33N 54°21' E 009°46'8 7.7
2014-Dec-11 12:33N 54°21' E 009°59'6 5.8
2014-Dec-11 11:33N 54°22' E 010°08'1 1.4
2014-Dec-11 10:33N 54°22' E 010°11'6 6.4
2014-Dec-11 09:33N 54°28' E 010°15'1010.1
2014-Dec-11 08:33N 54°33' E 010°30'11 9.6
2014-Dec-11 07:28N 54°35' E 010°48'33 8.5
2014-Dec-11 03:32N 54°28' E 011°44'9 8.8
2014-Dec-11 02:33N 54°26' E 011°59'8 8.4
2014-Dec-11 01:33N 54°31' E 012°11'56 9.3
2014-Dec-10 19:28N 54°59' E 013°36'9 9.6
2014-Dec-10 18:33N 55°01' E 013°51'9 8.8
2014-Dec-10 17:33N 55°05' E 014°05'7 6.9
2014-Dec-10 16:33N 55°10' E 014°13'5 5.3
2014-Dec-10 15:33N 55°14' E 014°18'5 5.2
2014-Dec-10 14:33N 55°18' E 014°23'5 4.6
2014-Dec-10 13:33N 55°22' E 014°29'4 3.6
2014-Dec-10 12:33N 55°25' E 014°32'3 3.1
2014-Dec-10 11:33N 55°27' E 014°36'5 4.7
2014-Dec-10 10:33N 55°29' E 014°43'6 5.6
2014-Dec-10 09:33N 55°32' E 014°52'  
Track history (hours):
 
Tides and Currents Weather Stations Pressure Air Temp Water Temp Dewpoint Dewpoint Depression Visibility Wind Speed Wind Dir Waves Ship Positions

LS Concorde

Last reported at 2014-Dec-20 09:31 UTC. Time now 2014-Dec-20 09:44 UTC.
Position N 51°57' E 003°48'.

Length 99 m; draft 5.3 m.

Type: Tanker. MMSI: 236329000.

Date/timePositionNaut miles runAvg speedWind from/ knotsBaromVisibWave heightAir tempDewpointWater temp
2014-Dec-20 09:31N 51°57' E 003°48'0 0.1
2014-Dec-20 08:16N 51°57' E 003°48'0 0.0
2014-Dec-20 07:22N 51°57' E 003°48'0 0.0
2014-Dec-20 06:31N 51°57' E 003°48'0 0.1
2014-Dec-20 05:28N 51°57' E 003°48'0 0.0
2014-Dec-20 04:22N 51°57' E 003°48'0 0.0
2014-Dec-20 03:22N 51°57' E 003°48'0 0.0
2014-Dec-20 02:31N 51°57' E 003°48'0 0.0
2014-Dec-20 01:25N 51°57' E 003°48'0 0.0
2014-Dec-20 00:28N 51°57' E 003°48'0 0.0
2014-Dec-19 23:22N 51°57' E 003°48'0 0.1
2014-Dec-19 22:31N 51°57' E 003°48'0 0.0
2014-Dec-19 21:31N 51°57' E 003°48'0 0.0
2014-Dec-19 20:25N 51°57' E 003°48'0 0.1
2014-Dec-19 19:25N 51°57' E 003°48'0 0.0
2014-Dec-19 18:22N 51°57' E 003°48'0 0.0
2014-Dec-19 17:31N 51°57' E 003°48'0 0.1
2014-Dec-19 16:28N 51°57' E 003°48'0 0.0
2014-Dec-19 15:31N 51°57' E 003°48'0 0.0
2014-Dec-19 14:28N 51°57' E 003°48'0 0.0
2014-Dec-19 13:31N 51°57' E 003°48'0 0.0
2014-Dec-19 12:31N 51°57' E 003°48'0 0.0
2014-Dec-19 11:28N 51°57' E 003°48'0 0.0
2014-Dec-19 10:22N 51°57' E 003°48'0 0.0
2014-Dec-19 09:10N 51°57' E 003°48'0 0.0
2014-Dec-19 08:25N 51°57' E 003°48'0 0.1
2014-Dec-19 07:28N 51°57' E 003°48'0 0.0
2014-Dec-19 06:31N 51°57' E 003°48'0 0.0
2014-Dec-19 05:22N 51°57' E 003°48'0 0.0
2014-Dec-19 04:07N 51°57' E 003°48'0 0.0
2014-Dec-19 03:31N 51°57' E 003°48'0 0.0
2014-Dec-19 02:31N 51°57' E 003°48'0 0.4
2014-Dec-19 01:33N 51°57' E 003°48'6 6.4
2014-Dec-19 00:33N 52°03' E 003°54'8 7.6
2014-Dec-18 23:33N 51°59' E 004°05'9 9.1
2014-Dec-18 22:33N 51°54' E 004°17'4 3.1
2014-Dec-18 21:23N 51°53' E 004°23'0 0.0
2014-Dec-18 20:20N 51°53' E 004°23'0 0.0
2014-Dec-18 19:32N 51°53' E 004°23'0 0.0
2014-Dec-18 18:26N 51°53' E 004°23'0 0.0
2014-Dec-18 17:29N 51°53' E 004°23'0 0.0
2014-Dec-18 16:32N 51°53' E 004°23'0 0.0
2014-Dec-18 15:32N 51°53' E 004°23'0 0.0
2014-Dec-18 14:32N 51°53' E 004°23'0 0.0
2014-Dec-18 13:32N 51°53' E 004°23'0 0.0
2014-Dec-18 12:32N 51°53' E 004°23'0 0.0
2014-Dec-18 11:33N 51°53' E 004°23'0 0.0
2014-Dec-18 10:33N 51°53' E 004°23'0 0.0
2014-Dec-18 09:33N 51°53' E 004°23'0 0.0
2014-Dec-18 08:33N 51°53' E 004°23'0 0.0
2014-Dec-18 07:33N 51°53' E 004°23'0 0.0
2014-Dec-18 06:33N 51°53' E 004°23'0 0.0
2014-Dec-18 05:33N 51°53' E 004°23'0 0.0
2014-Dec-18 04:33N 51°53' E 004°23'0 0.0
2014-Dec-18 03:33N 51°53' E 004°23'0 0.0
2014-Dec-18 02:33N 51°53' E 004°23'0 0.0
2014-Dec-18 01:33N 51°53' E 004°23'0 0.0
2014-Dec-18 00:34N 51°53' E 004°23'0 0.4
2014-Dec-17 23:34N 51°53' E 004°22'8 7.9
2014-Dec-17 22:33N 51°57' E 004°10'1312.8
2014-Dec-17 21:33N 52°00' E 003°50'1312.5
2014-Dec-17 20:33N 51°56' E 003°31'1313.1
2014-Dec-17 19:33N 51°52' E 003°11'1312.6
2014-Dec-17 18:33N 51°48' E 002°51'1211.7
2014-Dec-17 17:33N 51°43' E 002°35'1111.6
2014-Dec-17 16:33N 51°34' E 002°23'1111.2
2014-Dec-17 15:33N 51°25' E 002°12'1211.7
2014-Dec-17 14:33N 51°14' E 002°04'1612.2
2014-Dec-17 13:12N 51°04' E 001°43'812.9
2014-Dec-17 12:33N 50°58' E 001°34'10212.3
2014-Dec-17 04:12N 49°36' W 000°02'811.7
2014-Dec-17 03:32N 49°29' E 000°04'2 2.2
2014-Dec-17 02:30N 49°28' E 000°07'0 0.0
2014-Dec-17 01:30N 49°28' E 000°07'0 0.0
2014-Dec-17 00:30N 49°28' E 000°07'0 0.0
2014-Dec-16 23:06N 49°28' E 000°07'0 0.0
2014-Dec-16 22:24N 49°28' E 000°07'0 0.0
2014-Dec-16 21:24N 49°28' E 000°07'0 0.0
2014-Dec-16 20:12N 49°28' E 000°07'0 0.0
2014-Dec-16 19:12N 49°28' E 000°07'0 0.0
2014-Dec-16 18:33N 49°28' E 000°07'0 0.0
2014-Dec-16 17:15N 49°28' E 000°07'0 0.0
2014-Dec-16 16:30N 49°28' E 000°07'0 0.0
2014-Dec-16 15:33N 49°28' E 000°07'6 6.1
2014-Dec-16 14:33N 49°30' W 000°02'1110.8
2014-Dec-16 13:30N 49°40' W 000°10'6412.0
2014-Dec-16 08:10N 50°33' E 000°46'711.2
2014-Dec-16 07:33N 50°40' E 000°47'1212.1
2014-Dec-16 06:33N 50°46' E 001°04'1211.6
2014-Dec-16 05:33N 50°53' E 001°18'1212.3
2014-Dec-16 04:33N 51°04' E 001°29'1313.5
2014-Dec-16 03:33N 51°13' E 001°45'1413.9
2014-Dec-16 02:33N 51°24' E 001°59'1512.7
2014-Dec-16 01:22N 51°21' E 002°23'1511.8
2014-Dec-16 00:07N 51°22' E 002°46'1213.3
2014-Dec-15 23:12N 51°24' E 003°06'913.5
2014-Dec-15 22:34N 51°25' E 003°19'1312.7
2014-Dec-15 21:33N 51°27' E 003°40'9 9.0
2014-Dec-15 20:34N 51°20' E 003°49'7 6.8
2014-Dec-15 19:33N 51°13' E 003°48'1 0.6
2014-Dec-15 18:30N 51°12' E 003°48'0 0.0
2014-Dec-15 17:30N 51°12' E 003°48'0 0.0
2014-Dec-15 16:30N 51°12' E 003°48'0 0.0
2014-Dec-15 15:18N 51°12' E 003°48'0 0.0
2014-Dec-15 14:24N 51°12' E 003°48'0 0.0
2014-Dec-15 13:30N 51°12' E 003°48'0 0.0
2014-Dec-15 12:33N 51°12' E 003°48'0 0.0
2014-Dec-15 11:33N 51°12' E 003°48'0 0.0
2014-Dec-15 10:33N 51°12' E 003°48'0 0.0
2014-Dec-15 09:33N 51°12' E 003°48'0 0.0
2014-Dec-15 08:33N 51°12' E 003°48'0 0.0
2014-Dec-15 07:33N 51°12' E 003°48'0 0.0
2014-Dec-15 06:33N 51°12' E 003°48'0 0.0
2014-Dec-15 05:30N 51°12' E 003°48'0 0.0
2014-Dec-15 04:33N 51°12' E 003°48'0 0.0
2014-Dec-15 03:30N 51°12' E 003°48'0 0.0
2014-Dec-15 02:30N 51°12' E 003°48'0 0.0
2014-Dec-15 01:33N 51°12' E 003°48'0 0.0
2014-Dec-15 00:30N 51°12' E 003°48'0 0.0
2014-Dec-14 09:15N 51°12' E 003°48'0 0.0
2014-Dec-13 19:33N 51°12' E 003°48'6 5.9
2014-Dec-13 18:33N 51°18' E 003°50'4 3.5
2014-Dec-13 17:33N 51°21' E 003°47'8 8.0
2014-Dec-13 16:33N 51°26' E 003°37'1111.4
2014-Dec-13 15:33N 51°34' E 003°24'1110.5
2014-Dec-13 14:32N 51°44' E 003°17'3 0.5
2014-Dec-13 08:12N 51°46' E 003°20'3 4.9
2014-Dec-13 07:30N 51°49' E 003°17'6210.3
2014-Dec-13 01:33N 52°48' E 003°45'1110.4
2014-Dec-13 00:32N 52°56' E 003°56'34 8.1
2014-Dec-12 20:18N 53°22' E 004°34'5 6.9
2014-Dec-12 19:34N 53°26' E 004°38'7 6.7
2014-Dec-12 18:32N 53°31' E 004°47'7 7.5
2014-Dec-12 17:33N 53°33' E 004°58'9 9.0
2014-Dec-12 16:33N 53°37' E 005°12'8 8.1
2014-Dec-12 15:34N 53°39' E 005°25'8 7.7
2014-Dec-12 14:33N 53°41' E 005°38'7 6.9
2014-Dec-12 13:34N 53°44' E 005°49'6 5.7
2014-Dec-12 12:34N 53°45' E 005°58'5 4.7
2014-Dec-12 11:32N 53°47' E 006°06'50 6.9
2014-Dec-12 04:21N 54°00' E 007°27'6 7.9
2014-Dec-12 03:33N 54°01' E 007°38'7 6.9
2014-Dec-12 02:33N 54°02' E 007°49'6 6.0
2014-Dec-12 01:33N 54°02' E 007°59'6 5.4
2014-Dec-12 00:31N 54°01' E 008°09'4 4.3
2014-Dec-11 23:33N 54°01' E 008°16'4 4.5
2014-Dec-11 22:33N 53°59' E 008°23'1010.3
2014-Dec-11 21:33N 53°56' E 008°40'1312.7
2014-Dec-11 20:33N 53°51' E 008°60'6 5.8
2014-Dec-11 19:34N 53°54' E 009°09'5 5.1
2014-Dec-11 18:33N 53°57' E 009°15'8 8.3
2014-Dec-11 17:33N 54°05' E 009°19'6 6.4
2014-Dec-11 16:33N 54°10' E 009°26'6 4.0
2014-Dec-11 15:08N 54°13' E 009°35'4 6.5
2014-Dec-11 14:33N 54°16' E 009°38'7 6.7
2014-Dec-11 13:33N 54°21' E 009°46'8 7.7
2014-Dec-11 12:33N 54°21' E 009°59'6 5.8
2014-Dec-11 11:33N 54°22' E 010°08'1 1.4
2014-Dec-11 10:33N 54°22' E 010°11'6 6.4
2014-Dec-11 09:33N 54°28' E 010°15'1010.1
2014-Dec-11 08:33N 54°33' E 010°30'11 9.6
2014-Dec-11 07:28N 54°35' E 010°48'33 8.5
2014-Dec-11 03:32N 54°28' E 011°44'9 8.8
2014-Dec-11 02:33N 54°26' E 011°59'8 8.4
2014-Dec-11 01:33N 54°31' E 012°11'56 9.3
2014-Dec-10 19:28N 54°59' E 013°36'9 9.6
2014-Dec-10 18:33N 55°01' E 013°51'9 8.8
2014-Dec-10 17:33N 55°05' E 014°05'7 6.9
2014-Dec-10 16:33N 55°10' E 014°13'5 5.3
2014-Dec-10 15:33N 55°14' E 014°18'5 5.2
2014-Dec-10 14:33N 55°18' E 014°23'5 4.6
2014-Dec-10 13:33N 55°22' E 014°29'4 3.6
2014-Dec-10 12:33N 55°25' E 014°32'3 3.1
2014-Dec-10 11:33N 55°27' E 014°36'5 4.7
2014-Dec-10 10:33N 55°29' E 014°43'6 5.6
2014-Dec-10 09:33N 55°32' E 014°52'  

Dump ship's entire track history